sensor_id;sensor_type;location;lat;lon;timestamp;pressure;altitude;pressure_sealevel;temperature;humidity
73910;BME280;62245;48.070;7.874;2024-01-11T21:45:56;100406.41;;;-3.27;86.89
73910;BME280;62245;48.070;7.874;2024-01-11T21:48:21;100405.38;;;-3.24;87.06
73910;BME280;62245;48.070;7.874;2024-01-11T21:50:46;100400.53;;;-3.30;87.55
73910;BME280;62245;48.070;7.874;2024-01-11T21:53:12;100402.84;;;-3.26;87.08
73910;BME280;62245;48.070;7.874;2024-01-11T21:55:37;100400.25;;;-3.26;86.78
73910;BME280;62245;48.070;7.874;2024-01-11T21:58:03;100410.31;;;-3.20;86.80
73910;BME280;62245;48.070;7.874;2024-01-11T22:00:30;100407.91;;;-3.23;87.21
73910;BME280;62245;48.070;7.874;2024-01-11T22:02:57;100407.91;;;-3.23;85.89
73910;BME280;62245;48.070;7.874;2024-01-11T22:05:22;100411.09;;;-3.18;85.75
73910;BME280;62245;48.070;7.874;2024-01-11T22:07:47;100406.63;;;-3.16;85.75
73910;BME280;62245;48.070;7.874;2024-01-11T22:10:14;100408.13;;;-3.12;85.77
73910;BME280;62245;48.070;7.874;2024-01-11T22:12:39;100400.47;;;-3.15;84.75
73910;BME280;62245;48.070;7.874;2024-01-11T22:15:05;100387.50;;;-3.16;85.06
73910;BME280;62245;48.070;7.874;2024-01-11T22:17:30;100396.09;;;-3.14;84.24
73910;BME280;62245;48.070;7.874;2024-01-11T22:19:58;100401.00;;;-3.24;84.71
73910;BME280;62245;48.070;7.874;2024-01-11T22:22:23;100403.63;;;-3.24;84.79
73910;BME280;62245;48.070;7.874;2024-01-11T22:24:48;100413.28;;;-3.26;84.08
73910;BME280;62245;48.070;7.874;2024-01-11T22:27:15;100410.78;;;-3.27;84.38
73910;BME280;62245;48.070;7.874;2024-01-11T22:29:40;100409.19;;;-3.30;83.63
73910;BME280;62245;48.070;7.874;2024-01-11T22:32:05;100402.84;;;-3.26;84.23
73910;BME280;62245;48.070;7.874;2024-01-11T22:34:30;100406.06;;;-3.21;84.12
73910;BME280;62245;48.070;7.874;2024-01-11T22:36:56;100398.31;;;-3.22;84.07
73910;BME280;62245;48.070;7.874;2024-01-11T22:39:21;100406.22;;;-3.24;83.72
73910;BME280;62245;48.070;7.874;2024-01-11T22:41:46;100411.53;;;-3.25;84.09
73910;BME280;62245;48.070;7.874;2024-01-11T22:44:11;100410.59;;;-3.24;83.79
73910;BME280;62245;48.070;7.874;2024-01-11T22:46:37;100402.78;;;-3.24;83.86
73910;BME280;62245;48.070;7.874;2024-01-11T22:49:02;100404.63;;;-3.26;83.37
73910;BME280;62245;48.070;7.874;2024-01-11T22:51:29;100397.25;;;-3.34;83.38
73910;BME280;62245;48.070;7.874;2024-01-11T22:53:54;100401.06;;;-3.39;83.54
73910;BME280;62245;48.070;7.874;2024-01-11T22:56:20;100401.53;;;-3.33;83.94
73910;BME280;62245;48.070;7.874;2024-01-11T22:58:45;100398.75;;;-3.30;84.83
73910;BME280;62245;48.070;7.874;2024-01-11T23:01:10;100400.53;;;-3.30;84.08
73910;BME280;62245;48.070;7.874;2024-01-11T23:03:36;100395.13;;;-3.27;84.25
73910;BME280;62245;48.070;7.874;2024-01-11T23:06:01;100401.19;;;-3.27;83.72
73910;BME280;62245;48.070;7.874;2024-01-11T23:08:26;100401.94;;;-3.25;83.46
73910;BME280;62245;48.070;7.874;2024-01-11T23:10:52;100396.16;;;-3.30;83.88
73910;BME280;62245;48.070;7.874;2024-01-11T23:13:17;100409.19;;;-3.30;83.68
73910;BME280;62245;48.070;7.874;2024-01-11T23:15:43;100408.44;;;-3.32;83.01
73910;BME280;62245;48.070;7.874;2024-01-11T23:18:08;100411.91;;;-3.31;83.06
73910;BME280;62245;48.070;7.874;2024-01-11T23:20:33;100412.75;;;-3.31;83.81
73910;BME280;62245;48.070;7.874;2024-01-11T23:22:58;100409.28;;;-3.31;83.09
73910;BME280;62245;48.070;7.874;2024-01-11T23:25:24;100411.97;;;-3.33;83.79
73910;BME280;62245;48.070;7.874;2024-01-11T23:27:49;100404.22;;;-3.34;82.59
73910;BME280;62245;48.070;7.874;2024-01-11T23:30:15;100394.56;;;-3.32;83.28
73910;BME280;62245;48.070;7.874;2024-01-11T23:32:40;100400.63;;;-3.32;83.24
73910;BME280;62245;48.070;7.874;2024-01-11T23:35:05;100397.59;;;-3.40;83.61
73910;BME280;62245;48.070;7.874;2024-01-11T23:37:31;100394.06;;;-3.39;83.30
73910;BME280;62245;48.070;7.874;2024-01-11T23:39:56;100390.13;;;-3.46;83.92
73910;BME280;62245;48.070;7.874;2024-01-11T23:42:22;100395.53;;;-3.49;84.33
73910;BME280;62245;48.070;7.874;2024-01-11T23:44:47;100403.06;;;-3.45;84.76
73910;BME280;62245;48.070;7.874;2024-01-11T23:47:13;100398.69;;;-3.44;84.26
73910;BME280;62245;48.070;7.874;2024-01-11T23:49:38;100389.94;;;-3.43;84.18
73910;BME280;62245;48.070;7.874;2024-01-11T23:52:04;100392.38;;;-3.40;84.21
73910;BME280;62245;48.070;7.874;2024-01-11T23:54:30;100386.25;;;-3.39;84.50
73910;BME280;62245;48.070;7.874;2024-01-11T23:56:55;100381.94;;;-3.40;83.90
73910;BME280;62245;48.070;7.874;2024-01-11T23:59:20;100382.78;;;-3.39;83.66
